Time;durP1;ratioP1;P1;durP2;ratioP2;P2;SDS_P1;SDS_P2;PMS_P1;PMS_P2;Temp;Humidity;BMP_temperature;BMP_pressure;BME280_temperature;BME280_humidity;BME280_pressure;Samples;Min_cycle;Max_cycle;Signal;HPM_P1;HPM_P2
2021/06/25 00:00:11;;;;;;;10.20;8.03;;;19.90;99.90;;;;;;4945323;28;20478;-84
2021/06/25 00:03:02;;;;;;;11.57;7.90;;;19.80;99.90;;;;;;4944964;28;20667;-86
2021/06/25 00:05:31;;;;;;;9.37;7.73;;;19.80;99.90;;;;;;4941378;29;20265;-86
2021/06/25 00:08:00;;;;;;;9.97;8.10;;;19.80;99.90;;;;;;4951287;29;20201;-86
2021/06/25 00:10:32;;;;;;;9.90;8.43;;;19.70;99.90;;;;;;4946359;28;20257;-88
2021/06/25 00:13:02;;;;;;;10.00;8.23;;;19.60;99.90;;;;;;4944597;29;20237;-85
2021/06/25 00:15:31;;;;;;;10.77;8.73;;;19.60;99.90;;;;;;4950821;29;20206;-87
2021/06/25 00:18:01;;;;;;;9.80;8.10;;;19.60;99.90;;;;;;4949539;28;20218;-85
2021/06/25 00:20:30;;;;;;;11.00;8.43;;;19.60;99.90;;;;;;4952715;29;20198;-87
2021/06/25 00:23:00;;;;;;;12.40;8.77;;;19.60;99.90;;;;;;4956472;28;20197;-84
2021/06/25 00:25:31;;;;;;;14.47;8.60;;;19.60;99.90;;;;;;4963875;28;20326;-86
2021/06/25 00:28:01;;;;;;;10.43;8.30;;;19.50;99.90;;;;;;4957927;28;20209;-85
2021/06/25 00:30:30;;;;;;;12.47;8.93;;;19.40;99.90;;;;;;4946826;29;20209;-87
2021/06/25 00:33:00;;;;;;;12.93;8.23;;;19.40;99.90;;;;;;4946390;28;20280;-84
2021/06/25 00:35:30;;;;;;;12.17;8.50;;;19.30;99.90;;;;;;4947016;28;20210;-83
2021/06/25 00:37:58;;;;;;;10.20;8.20;;;19.30;99.90;;;;;;4949747;28;20492;-85
2021/06/25 00:40:27;;;;;;;10.17;8.10;;;19.30;99.90;;;;;;4950229;29;20261;-88
2021/06/25 00:42:58;;;;;;;12.90;8.23;;;19.20;99.90;;;;;;4951879;28;20563;-83
2021/06/25 00:45:27;;;;;;;11.43;8.23;;;19.20;99.90;;;;;;4965373;28;20225;-85
2021/06/25 00:47:55;;;;;;;10.70;7.83;;;19.20;99.90;;;;;;4957061;28;20198;-84
2021/06/25 00:50:26;;;;;;;11.90;7.87;;;19.20;99.90;;;;;;4963394;28;20186;-84
2021/06/25 00:52:58;;;;;;;10.73;7.83;;;19.20;99.90;;;;;;4960771;28;20280;-85
2021/06/25 00:55:30;;;;;;;8.07;7.27;;;19.20;99.90;;;;;;4960465;28;20216;-84
2021/06/25 00:58:00;;;;;;;10.67;8.07;;;19.10;99.90;;;;;;4953633;28;20237;-83
2021/06/25 01:00:29;;;;;;;15.60;8.17;;;19.10;99.90;;;;;;4950911;28;20225;-83
2021/06/25 01:02:58;;;;;;;13.03;8.47;;;19.00;99.90;;;;;;4968577;28;20196;-85
2021/06/25 01:05:26;;;;;;;10.30;8.13;;;19.00;99.90;;;;;;4968231;28;20336;-86
2021/06/25 01:07:55;;;;;;;10.53;8.10;;;19.00;99.90;;;;;;4962755;28;20192;-85
2021/06/25 01:10:24;;;;;;;11.27;8.10;;;18.90;99.90;;;;;;4965748;28;20311;-84
2021/06/25 01:12:54;;;;;;;10.53;8.20;;;18.90;99.90;;;;;;4959999;28;20196;-85
2021/06/25 01:15:24;;;;;;;12.73;8.50;;;18.80;99.90;;;;;;4965209;28;20224;-82
2021/06/25 01:17:53;;;;;;;11.23;9.10;;;18.90;99.90;;;;;;4942380;28;20229;-84
2021/06/25 01:20:26;;;;;;;10.27;7.60;;;18.90;99.90;;;;;;4944772;28;20257;-84
2021/06/25 01:22:58;;;;;;;10.13;8.87;;;18.90;99.90;;;;;;4951752;28;20209;-82
2021/06/25 01:25:30;;;;;;;12.30;8.60;;;18.90;99.90;;;;;;4953219;28;20205;-82
2021/06/25 01:28:02;;;;;;;10.30;7.93;;;18.80;99.90;;;;;;4947504;28;20198;-86
2021/06/25 01:30:32;;;;;;;8.93;8.03;;;18.80;99.90;;;;;;4952687;28;20285;-86
2021/06/25 01:33:05;;;;;;;13.03;8.20;;;18.80;99.90;;;;;;4948841;28;20253;-83
2021/06/25 01:35:33;;;;;;;11.50;7.20;;;18.70;99.90;;;;;;4945507;28;20209;-82
2021/06/25 01:38:04;;;;;;;9.70;8.07;;;18.60;99.90;;;;;;4944560;28;20205;-83
2021/06/25 01:40:36;;;;;;;10.07;6.43;;;18.60;99.90;;;;;;4949079;28;20186;-84
2021/06/25 01:43:06;;;;;;;12.57;8.20;;;18.50;99.90;;;;;;4943601;28;20204;-84
2021/06/25 01:45:38;;;;;;;10.50;8.27;;;18.50;99.90;;;;;;4959113;28;20201;-83
2021/06/25 01:48:08;;;;;;;12.37;9.00;;;18.50;99.90;;;;;;4953165;28;20205;-85
2021/06/25 01:50:39;;;;;;;11.17;8.43;;;18.50;99.90;;;;;;4958798;28;20216;-82
2021/06/25 01:53:10;;;;;;;12.67;8.83;;;18.40;99.90;;;;;;4965675;28;20197;-84
2021/06/25 01:55:42;;;;;;;13.00;9.73;;;18.50;99.90;;;;;;4961015;28;20212;-81
2021/06/25 01:58:12;;;;;;;14.17;9.53;;;18.50;99.90;;;;;;4960294;28;20237;-85
2021/06/25 02:00:42;;;;;;;13.17;10.13;;;18.60;99.90;;;;;;4947971;28;20194;-83
2021/06/25 02:03:11;;;;;;;11.40;8.33;;;18.60;99.90;;;;;;4950198;28;20249;-83
2021/06/25 02:05:40;;;;;;;12.17;9.20;;;18.60;99.90;;;;;;4956164;29;20201;-85
2021/06/25 02:08:10;;;;;;;11.90;9.47;;;18.60;99.90;;;;;;4953888;29;20198;-86
2021/06/25 02:10:39;;;;;;;13.57;9.10;;;18.70;99.90;;;;;;4956395;28;20212;-83
2021/06/25 02:13:07;;;;;;;13.87;9.83;;;18.60;99.90;;;;;;4946289;28;20566;-84
2021/06/25 02:15:36;;;;;;;12.67;9.97;;;18.70;99.90;;;;;;4951835;28;20201;-85
2021/06/25 02:18:06;;;;;;;10.50;9.40;;;18.80;99.90;;;;;;4956044;28;20257;-85
2021/06/25 02:20:34;;;;;;;14.47;10.47;;;18.70;99.90;;;;;;4946698;28;20806;-84
2021/06/25 02:23:03;;;;;;;13.57;10.27;;;18.80;99.90;;;;;;4948223;28;20550;-83
2021/06/25 02:25:33;;;;;;;14.73;10.93;;;18.80;99.90;;;;;;4947269;28;20210;-84
2021/06/25 02:28:02;;;;;;;14.00;11.60;;;18.80;99.90;;;;;;4939950;28;20462;-81
2021/06/25 02:30:31;;;;;;;11.83;10.60;;;18.90;99.90;;;;;;4936220;28;20258;-82
2021/06/25 02:33:00;;;;;;;13.33;10.40;;;18.80;99.90;;;;;;4938206;28;20201;-84
2021/06/25 02:35:28;;;;;;;12.23;10.23;;;18.80;99.90;;;;;;4939047;28;20219;-85
2021/06/25 02:37:57;;;;;;;13.87;10.63;;;18.90;99.90;;;;;;4931560;28;20712;-86
2021/06/25 02:40:26;;;;;;;14.33;10.67;;;18.80;99.90;;;;;;4946463;28;20237;-84
2021/06/25 02:42:56;;;;;;;11.27;9.90;;;18.80;99.90;;;;;;4952150;28;20206;-82
2021/06/25 02:45:25;;;;;;;13.73;11.13;;;18.90;99.90;;;;;;4955471;28;20229;-81
2021/06/25 02:47:54;;;;;;;10.87;9.77;;;18.90;99.90;;;;;;4945626;28;20727;-81
2021/06/25 02:50:23;;;;;;;13.50;10.60;;;18.90;99.90;;;;;;4937237;28;20304;-83
2021/06/25 02:52:52;;;;;;;14.50;11.07;;;18.90;99.90;;;;;;4935915;29;20209;-82
2021/06/25 02:55:23;;;;;;;13.53;10.47;;;18.90;99.90;;;;;;4941456;28;20481;-82
2021/06/25 02:57:51;;;;;;;15.13;10.47;;;18.90;99.90;;;;;;4939865;28;20264;-83
2021/06/25 03:00:22;;;;;;;15.50;11.30;;;18.90;99.90;;;;;;4938505;28;20637;-84
2021/06/25 03:02:51;;;;;;;14.67;10.97;;;18.90;99.90;;;;;;4930259;28;20205;-82
2021/06/25 03:05:21;;;;;;;17.40;12.20;;;18.90;99.90;;;;;;4939781;28;20296;-83
2021/06/25 03:07:50;;;;;;;15.53;11.70;;;18.90;99.90;;;;;;4935431;28;20454;-84
2021/06/25 03:10:19;;;;;;;14.47;12.67;;;19.00;99.90;;;;;;4946697;28;20213;-82
2021/06/25 03:12:48;;;;;;;15.30;12.73;;;19.00;99.90;;;;;;4956905;28;20225;-82
2021/06/25 03:15:17;;;;;;;18.07;13.07;;;19.00;99.90;;;;;;4958416;28;20201;-85
2021/06/25 03:17:47;;;;;;;16.97;12.07;;;19.10;99.90;;;;;;4960502;28;20422;-84
2021/06/25 03:20:16;;;;;;;14.87;11.33;;;19.20;99.90;;;;;;4948703;28;20244;-85
2021/06/25 03:22:45;;;;;;;16.87;12.03;;;19.30;99.90;;;;;;4946279;28;20212;-81
2021/06/25 03:25:14;;;;;;;13.37;11.70;;;19.30;99.90;;;;;;4936997;28;20667;-82
2021/06/25 03:27:43;;;;;;;14.57;11.57;;;19.40;99.90;;;;;;4933992;28;20691;-82
2021/06/25 03:30:12;;;;;;;14.60;11.67;;;19.50;99.90;;;;;;4948337;28;20213;-83
2021/06/25 03:32:42;;;;;;;17.43;11.97;;;19.60;99.90;;;;;;4936938;28;20235;-83
2021/06/25 03:35:13;;;;;;;16.03;11.33;;;19.70;99.90;;;;;;4955290;28;20209;-83
2021/06/25 03:37:42;;;;;;;16.47;11.60;;;19.80;99.90;;;;;;4954619;28;20220;-84
2021/06/25 03:40:17;;;;;;;13.23;10.77;;;19.90;99.90;;;;;;4954729;29;20237;-82
2021/06/25 03:42:46;;;;;;;14.90;11.20;;;20.00;99.90;;;;;;4948102;28;20529;-85
2021/06/25 03:45:15;;;;;;;12.90;10.37;;;20.00;99.90;;;;;;4943090;29;20256;-85
2021/06/25 03:47:44;;;;;;;12.80;10.30;;;19.90;99.90;;;;;;4941519;29;20797;-82
2021/06/25 03:50:15;;;;;;;12.33;11.03;;;19.90;99.90;;;;;;4936529;28;20212;-84
2021/06/25 03:52:43;;;;;;;14.20;11.33;;;20.00;99.90;;;;;;4939263;29;20248;-82
2021/06/25 03:55:13;;;;;;;14.73;11.73;;;19.90;99.90;;;;;;4943017;28;20261;-81
2021/06/25 03:57:43;;;;;;;13.07;10.27;;;19.80;99.90;;;;;;4934683;29;20212;-84
2021/06/25 04:00:14;;;;;;;12.83;10.63;;;19.80;99.90;;;;;;4937154;28;20790;-84
2021/06/25 04:02:45;;;;;;;11.97;10.40;;;19.70;99.90;;;;;;4941103;28;20315;-86
2021/06/25 04:05:16;;;;;;;13.17;10.33;;;19.70;99.90;;;;;;4947748;28;20214;-85
2021/06/25 04:07:46;;;;;;;11.27;9.60;;;19.60;99.90;;;;;;4937730;28;20205;-86
2021/06/25 04:10:15;;;;;;;12.37;9.50;;;19.50;99.90;;;;;;4937801;28;20213;-84
2021/06/25 04:12:44;;;;;;;11.30;9.97;;;19.50;99.90;;;;;;4939799;28;20233;-85
2021/06/25 04:15:13;;;;;;;12.17;10.57;;;19.50;99.90;;;;;;4942627;28;20265;-85
2021/06/25 04:17:41;;;;;;;11.67;10.07;;;19.50;99.90;;;;;;4946313;28;20248;-83
2021/06/25 04:20:12;;;;;;;12.73;9.53;;;19.50;99.90;;;;;;4945585;28;20567;-83
2021/06/25 04:22:43;;;;;;;10.40;9.37;;;19.40;99.90;;;;;;4954512;28;20596;-85
2021/06/25 04:25:12;;;;;;;11.57;10.13;;;19.40;99.90;;;;;;4943561;29;20984;-82
2021/06/25 04:27:41;;;;;;;13.60;10.30;;;19.30;99.90;;;;;;4952777;28;20208;-81
2021/06/25 04:30:12;;;;;;;13.27;9.90;;;19.30;99.90;;;;;;4956475;28;20687;-83
2021/06/25 04:32:44;;;;;;;12.23;9.73;;;19.20;99.90;;;;;;4951869;28;20212;-84
2021/06/25 04:35:13;;;;;;;11.30;9.07;;;19.10;99.90;;;;;;4950001;29;20222;-83
2021/06/25 04:37:47;;;;;;;12.53;9.80;;;19.10;99.90;;;;;;4952179;28;20282;-84
2021/06/25 04:40:17;;;;;;;13.40;10.10;;;19.10;99.90;;;;;;4952237;28;20734;-83
2021/06/25 04:42:46;;;;;;;11.90;9.40;;;19.20;99.90;;;;;;4949401;28;20209;-85
2021/06/25 04:45:16;;;;;;;13.20;9.67;;;19.30;99.90;;;;;;4944662;28;20853;-84
2021/06/25 04:47:45;;;;;;;10.83;9.60;;;19.50;99.90;;;;;;4943627;28;20402;-83
2021/06/25 04:50:14;;;;;;;10.73;9.13;;;19.60;99.90;;;;;;4952680;28;20304;-85
2021/06/25 04:52:44;;;;;;;13.97;9.90;;;19.60;99.90;;;;;;4951285;28;20206;-85
2021/06/25 04:55:14;;;;;;;11.40;8.63;;;19.70;99.90;;;;;;4941310;29;20236;-87
2021/06/25 04:57:50;;;;;;;9.67;8.70;;;19.80;99.90;;;;;;4938041;28;20224;-83
2021/06/25 05:00:21;;;;;;;12.87;9.07;;;19.90;99.90;;;;;;4956547;28;20221;-87
2021/06/25 05:02:50;;;;;;;10.40;9.33;;;20.00;99.90;;;;;;4961898;28;20213;-85
2021/06/25 05:05:19;;;;;;;14.77;10.17;;;20.20;99.90;;;;;;4953833;28;20212;-86
2021/06/25 05:07:50;;;;;;;11.80;9.63;;;20.30;99.90;;;;;;4949830;28;20666;-85
2021/06/25 05:10:19;;;;;;;13.70;10.23;;;20.40;99.90;;;;;;4936907;29;20210;-84
2021/06/25 05:12:48;;;;;;;11.70;10.50;;;20.60;99.90;;;;;;4936375;29;20257;-83
2021/06/25 05:15:27;;;;;;;11.77;10.50;;;20.70;99.90;;;;;;4939082;29;20210;-83
2021/06/25 05:17:55;;;;;;;13.93;10.23;;;20.80;99.90;;;;;;4944658;28;20217;-84
2021/06/25 05:20:45;;;;;;;14.17;10.40;;;20.80;99.90;;;;;;4947605;28;20232;-84
2021/06/25 05:23:16;;;;;;;13.15;10.32;;;20.90;99.90;;;;;;4958643;28;20216;-85
2021/06/25 05:25:46;;;;;;;12.23;10.20;;;20.90;99.90;;;;;;4964126;28;20209;-84
2021/06/25 05:28:17;;;;;;;12.00;10.33;;;20.90;99.90;;;;;;4950066;28;21608;-84
2021/06/25 05:30:46;;;;;;;15.03;11.03;;;21.00;99.90;;;;;;4941426;28;20254;-83
2021/06/25 05:33:15;;;;;;;13.50;10.50;;;21.10;99.90;;;;;;4959429;28;20652;-83
2021/06/25 05:35:43;;;;;;;12.35;10.57;;;21.10;99.90;;;;;;4955012;28;20228;-83
2021/06/25 05:38:17;;;;;;;14.23;11.37;;;21.10;99.90;;;;;;4955940;28;20528;-87
2021/06/25 05:40:46;;;;;;;15.50;12.35;;;21.20;99.90;;;;;;4948091;28;20233;-86
2021/06/25 05:43:15;;;;;;;14.45;12.38;;;21.10;99.90;;;;;;4941078;28;20519;-84
2021/06/25 05:45:43;;;;;;;16.63;13.20;;;21.10;99.90;;;;;;4939799;28;20625;-86
2021/06/25 05:48:12;;;;;;;17.80;13.50;;;21.30;99.90;;;;;;4934451;28;20218;-83
2021/06/25 05:50:41;;;;;;;16.63;13.07;;;21.30;99.90;;;;;;4929528;28;20202;-86
2021/06/25 05:53:10;;;;;;;17.80;14.38;;;21.30;99.90;;;;;;4932129;28;20229;-84
2021/06/25 05:55:42;;;;;;;18.50;14.85;;;21.30;99.90;;;;;;4929456;28;20507;-84
2021/06/25 05:58:12;;;;;;;18.75;14.63;;;21.30;99.90;;;;;;4928563;28;20484;-86
2021/06/25 06:00:40;;;;;;;21.17;15.95;;;21.30;99.90;;;;;;4932286;28;20290;-84
2021/06/25 06:03:09;;;;;;;22.65;18.02;;;21.20;99.90;;;;;;4937437;28;20209;-84
2021/06/25 06:05:38;;;;;;;18.63;16.17;;;21.10;99.90;;;;;;4937990;28;20479;-86
2021/06/25 06:08:07;;;;;;;23.05;17.00;;;21.20;99.90;;;;;;4942552;28;20272;-83
2021/06/25 06:10:36;;;;;;;24.08;17.52;;;21.20;99.90;;;;;;4932772;29;20210;-85
2021/06/25 06:13:07;;;;;;;20.95;18.05;;;21.30;99.90;;;;;;4945636;28;20222;-85
2021/06/25 06:15:36;;;;;;;23.67;19.17;;;21.30;99.90;;;;;;4949588;28;20272;-85
2021/06/25 06:18:06;;;;;;;22.80;18.75;;;21.20;99.90;;;;;;4935095;28;20205;-85
2021/06/25 06:20:35;;;;;;;26.95;20.35;;;21.20;99.90;;;;;;4927952;28;20237;-86
2021/06/25 06:31:24;;;;;;;32.58;24.52;;;21.50;99.90;;;;;;4925767;28;20213;-88
2021/06/25 06:33:55;;;;;;;32.22;25.42;;;21.60;99.90;;;;;;4915481;28;20217;-86
2021/06/25 06:36:27;;;;;;;31.70;26.27;;;21.70;99.90;;;;;;4923967;28;20225;-86
2021/06/25 06:38:58;;;;;;;36.05;29.38;;;21.80;99.90;;;;;;4920161;28;20773;-85
2021/06/25 06:41:29;;;;;;;34.33;28.65;;;22.00;99.90;;;;;;4928905;28;20240;-86
2021/06/25 06:43:59;;;;;;;33.05;27.83;;;22.20;99.90;;;;;;4932633;28;20617;-86
2021/06/25 06:46:28;;;;;;;32.03;28.42;;;22.40;99.90;;;;;;4927484;28;20320;-85
2021/06/25 06:48:57;;;;;;;34.90;30.40;;;22.50;99.90;;;;;;4927473;28;20201;-85
2021/06/25 06:51:26;;;;;;;36.08;29.50;;;22.40;96.50;;;;;;4927799;28;20197;-85
2021/06/25 06:53:56;;;;;;;33.00;29.40;;;22.30;97.10;;;;;;4924352;28;21411;-86
2021/06/25 06:56:25;;;;;;;38.25;31.77;;;22.10;99.00;;;;;;4924554;28;20209;-86
2021/06/25 06:58:56;;;;;;;41.00;32.85;;;22.10;99.80;;;;;;4934425;28;20604;-85
2021/06/25 07:01:27;;;;;;;40.28;32.47;;;22.00;99.80;;;;;;4943107;28;20213;-86
2021/06/25 07:04:09;;;;;;;42.15;34.03;;;22.00;99.90;;;;;;4943726;28;20216;-84
2021/06/25 07:06:38;;;;;;;39.45;34.67;;;22.00;99.90;;;;;;4929377;28;20216;-85
2021/06/25 07:09:06;;;;;;;40.65;34.00;;;22.00;99.90;;;;;;4923530;28;20217;-87
2021/06/25 07:11:35;;;;;;;43.53;34.47;;;22.00;99.90;;;;;;4922768;28;20205;-85
2021/06/25 07:14:04;;;;;;;43.83;34.10;;;22.10;99.90;;;;;;4929126;28;20711;-85
2021/06/25 07:16:34;;;;;;;38.38;33.92;;;22.40;99.90;;;;;;4943400;28;20208;-87
2021/06/25 07:19:04;;;;;;;38.88;32.53;;;22.60;98.50;;;;;;4926803;28;20228;-86
2021/06/25 07:21:32;;;;;;;37.28;32.90;;;22.70;97.60;;;;;;4930957;28;20283;-85
2021/06/25 07:24:02;;;;;;;35.80;31.33;;;22.80;97.60;;;;;;4927497;28;20205;-86
2021/06/25 07:26:31;;;;;;;34.75;30.98;;;23.00;96.60;;;;;;4953584;28;20185;-86
2021/06/25 07:28:59;;;;;;;35.08;30.60;;;23.20;97.00;;;;;;4932355;28;20205;-87
2021/06/25 07:31:28;;;;;;;36.92;31.70;;;23.30;95.50;;;;;;4945158;28;20224;-85
2021/06/25 07:33:59;;;;;;;38.05;30.98;;;23.20;94.60;;;;;;4940078;28;20220;-85
2021/06/25 07:36:27;;;;;;;36.95;31.67;;;23.20;95.70;;;;;;4930760;28;20213;-85
2021/06/25 07:38:55;;;;;;;37.97;31.15;;;23.10;95.70;;;;;;4924872;28;20280;-84
2021/06/25 07:41:24;;;;;;;36.67;32.03;;;22.90;95.70;;;;;;4928711;29;20217;-85
2021/06/25 07:43:53;;;;;;;37.00;30.88;;;22.90;96.90;;;;;;4939374;28;20205;-85
2021/06/25 07:46:24;;;;;;;34.25;30.50;;;22.90;96.80;;;;;;4925586;28;20267;-86
2021/06/25 07:48:53;;;;;;;33.75;29.52;;;23.00;96.70;;;;;;4927373;28;20205;-87
2021/06/25 07:51:24;;;;;;;33.80;29.33;;;23.10;95.70;;;;;;4930980;28;20621;-88
2021/06/25 07:53:53;;;;;;;35.72;30.13;;;23.20;96.30;;;;;;4936388;28;20205;-89
2021/06/25 07:56:23;;;;;;;37.92;29.88;;;23.30;96.20;;;;;;4950234;28;20360;-86
2021/06/25 07:58:53;;;;;;;35.55;30.77;;;23.40;94.20;;;;;;4928062;29;20217;-87
2021/06/25 08:01:23;;;;;;;36.42;30.77;;;23.40;93.60;;;;;;4930575;28;20312;-86
2021/06/25 08:03:53;;;;;;;36.50;30.15;;;23.40;93.10;;;;;;4931183;28;20347;-87
2021/06/25 08:06:23;;;;;;;34.35;30.38;;;23.30;93.20;;;;;;4939832;29;20415;-88
2021/06/25 08:08:52;;;;;;;34.83;29.98;;;23.30;93.60;;;;;;4930230;29;20209;-87
2021/06/25 08:11:21;;;;;;;35.70;30.13;;;23.30;94.30;;;;;;4933517;28;20212;-86
2021/06/25 08:13:50;;;;;;;37.05;31.10;;;23.50;95.90;;;;;;4931281;28;20202;-85
2021/06/25 08:16:19;;;;;;;35.72;30.45;;;23.60;93.40;;;;;;4924743;28;20637;-87
2021/06/25 08:18:51;;;;;;;34.58;30.85;;;23.70;93.10;;;;;;4929815;28;20700;-88
2021/06/25 08:21:20;;;;;;;37.25;30.88;;;23.70;92.70;;;;;;4932465;28;20209;-86
2021/06/25 08:23:50;;;;;;;37.70;31.17;;;23.50;92.80;;;;;;4945294;28;20241;-84
2021/06/25 08:26:19;;;;;;;35.10;30.73;;;23.40;93.30;;;;;;4930475;28;20456;-85
2021/06/25 08:28:48;;;;;;;37.22;31.88;;;23.40;93.60;;;;;;4929765;28;20208;-85
2021/06/25 08:31:17;;;;;;;39.92;33.08;;;23.50;94.00;;;;;;4929111;28;20532;-87
2021/06/25 08:33:46;;;;;;;39.22;33.20;;;23.70;93.60;;;;;;4929625;28;20787;-86
2021/06/25 08:36:15;;;;;;;36.55;32.17;;;23.90;93.70;;;;;;4945976;28;20209;-85
2021/06/25 08:38:44;;;;;;;40.15;33.92;;;24.20;94.50;;;;;;4944930;28;20217;-90
2021/06/25 08:41:14;;;;;;;40.90;35.15;;;24.60;91.30;;;;;;4952625;28;20197;-86
2021/06/25 08:43:43;;;;;;;40.20;34.60;;;24.90;90.60;;;;;;4946854;28;20225;-88
2021/06/25 08:46:12;;;;;;;40.40;34.53;;;25.00;90.00;;;;;;4951124;28;20209;-86
2021/06/25 08:48:45;;;;;;;39.25;34.97;;;24.90;90.50;;;;;;4945999;28;20383;-86
2021/06/25 08:51:19;;;;;;;41.53;35.63;;;25.00;90.00;;;;;;4930302;28;20999;-88
2021/06/25 08:53:49;;;;;;;40.03;35.50;;;24.90;90.50;;;;;;4943576;28;20232;-85
2021/06/25 08:56:19;;;;;;;40.53;34.83;;;24.80;90.30;;;;;;4950142;28;20225;-86
2021/06/25 08:58:48;;;;;;;45.67;36.90;;;24.80;90.70;;;;;;4949180;28;20224;-87
2021/06/25 09:01:18;;;;;;;42.38;35.88;;;24.90;90.90;;;;;;4941976;28;20206;-83
2021/06/25 09:03:53;;;;;;;38.22;34.33;;;25.10;91.70;;;;;;4933328;28;20244;-87
2021/06/25 09:06:22;;;;;;;38.58;34.47;;;25.30;90.80;;;;;;4932872;28;20304;-87
2021/06/25 09:09:10;;;;;;;38.50;34.38;;;25.60;91.20;;;;;;4938461;28;20198;-83
2021/06/25 09:11:43;;;;;;;37.20;33.15;;;25.70;91.00;;;;;;4939544;28;20213;-84
2021/06/25 09:14:11;;;;;;;42.05;33.88;;;25.80;90.50;;;;;;4933125;28;20237;-85
2021/06/25 09:16:42;;;;;;;38.13;33.63;;;25.80;89.90;;;;;;4924962;28;20206;-85
2021/06/25 09:19:16;;;;;;;35.88;31.27;;;25.80;90.10;;;;;;4933333;28;20292;-86
2021/06/25 09:22:00;;;;;;;35.20;31.33;;;26.00;90.20;;;;;;4926617;28;20264;-85
2021/06/25 09:24:30;;;;;;;36.80;32.90;;;26.10;89.30;;;;;;4931400;28;20244;-84
2021/06/25 09:27:03;;;;;;;37.65;33.55;;;26.20;88.20;;;;;;4984501;23;21808;-85
2021/06/25 09:29:36;;;;;;;37.53;33.55;;;26.20;88.70;;;;;;4931834;29;20706;-85
2021/06/25 09:32:06;;;;;;;40.17;34.28;;;26.40;89.30;;;;;;4937515;28;21067;-84
2021/06/25 09:34:38;;;;;;;36.30;32.53;;;26.60;86.80;;;;;;4934572;28;20322;-86
2021/06/25 09:37:10;;;;;;;38.28;33.83;;;26.40;86.70;;;;;;4936059;28;20209;-84
2021/06/25 09:39:41;;;;;;;34.90;31.30;;;26.30;87.10;;;;;;4931788;28;20230;-85
2021/06/25 09:42:19;;;;;;;34.47;30.88;;;26.50;87.60;;;;;;4940903;28;20205;-85
2021/06/25 09:44:59;;;;;;;34.00;30.45;;;26.80;87.70;;;;;;4928920;28;20407;-83
2021/06/25 09:47:30;;;;;;;33.97;29.92;;;26.90;85.90;;;;;;4933801;28;20409;-86
2021/06/25 09:50:12;;;;;;;33.35;29.90;;;26.90;86.10;;;;;;4951177;23;20458;-85
2021/06/25 09:52:52;;;;;;;33.88;29.95;;;26.90;86.00;;;;;;4891270;28;20200;-87
2021/06/25 09:55:23;;;;;;;36.67;30.35;;;26.90;85.70;;;;;;4885361;29;21161;-86
2021/06/25 09:58:36;;;;;;;33.42;29.52;;;26.80;85.90;;;;;;4878991;29;20231;-88
2021/06/25 10:01:22;;;;;;;33.10;29.60;;;26.70;85.80;;;;;;4891002;29;20199;-89
2021/06/25 10:04:04;;;;;;;33.55;30.05;;;26.70;86.10;;;;;;4879210;29;20248;-87
2021/06/25 10:06:39;;;;;;;31.77;28.25;;;26.70;86.30;;;;;;4877084;29;20211;-88
2021/06/25 10:09:12;;;;;;;32.10;28.60;;;26.70;86.30;;;;;;4874096;29;20219;-87
2021/06/25 10:11:43;;;;;;;34.05;29.85;;;26.50;85.30;;;;;;4878513;29;20218;-89
2021/06/25 10:14:19;;;;;;;31.88;28.50;;;26.20;85.70;;;;;;4890416;29;20219;-87
2021/06/25 10:16:50;;;;;;;32.20;28.73;;;26.20;86.60;;;;;;4867952;29;20238;-89
2021/06/25 10:19:21;;;;;;;32.50;29.00;;;26.30;86.00;;;;;;4879077;29;20355;-90
2021/06/25 10:21:53;;;;;;;34.97;29.70;;;26.10;86.50;;;;;;4873536;29;20211;-90
2021/06/25 10:24:23;;;;;;;31.63;28.35;;;26.20;86.40;;;;;;4871983;29;20228;-89
2021/06/25 10:26:53;;;;;;;32.28;27.98;;;26.40;86.60;;;;;;4866786;29;20207;-86
2021/06/25 10:29:26;;;;;;;31.20;27.85;;;26.40;85.90;;;;;;4870778;29;20221;-91
2021/06/25 10:32:00;;;;;;;29.23;26.13;;;26.40;85.90;;;;;;4870057;29;20226;-90
2021/06/25 10:34:34;;;;;;;29.23;26.10;;;26.50;86.40;;;;;;4873339;29;20507;-91
2021/06/25 10:37:07;;;;;;;30.85;27.40;;;26.60;86.10;;;;;;4865379;29;20212;-90
2021/06/25 10:39:40;;;;;;;29.45;26.42;;;26.70;86.30;;;;;;4876492;29;20227;-90
2021/06/25 10:42:11;;;;;;;31.23;27.75;;;26.70;85.80;;;;;;4862047;29;20812;-86
2021/06/25 10:44:44;;;;;;;32.58;28.33;;;26.40;85.60;;;;;;4867175;29;20705;-91
2021/06/25 10:47:25;;;;;;;30.58;27.40;;;26.00;86.00;;;;;;4874868;29;20990;-87
2021/06/25 10:50:33;;;;;;;31.52;26.80;;;25.90;86.20;;;;;;4878813;29;20713;-90
2021/06/25 10:53:22;;;;;;;31.67;27.23;;;25.90;86.70;;;;;;4873821;29;20494;-86
2021/06/25 10:56:03;;;;;;;30.90;26.80;;;25.90;86.10;;;;;;4890746;29;20625;-87
2021/06/25 10:58:34;;;;;;;30.88;27.42;;;25.90;86.40;;;;;;4873952;29;20202;-89
2021/06/25 11:01:06;;;;;;;29.65;26.30;;;25.90;86.10;;;;;;4871144;29;20606;-87
2021/06/25 11:03:45;;;;;;;28.00;24.98;;;26.00;86.40;;;;;;4877700;29;20359;-88
2021/06/25 11:06:53;;;;;;;30.00;26.70;;;26.10;86.70;;;;;;4872567;29;20203;-91
2021/06/25 11:09:24;;;;;;;27.80;24.75;;;25.90;86.30;;;;;;4854409;29;20707;-90
2021/06/25 11:12:20;;;;;;;27.45;24.63;;;26.00;85.90;;;;;;4882821;29;20330;-88
2021/06/25 11:14:51;;;;;;;28.77;25.45;;;26.00;85.50;;;;;;4869673;29;20247;-88
2021/06/25 11:17:52;;;;;;;27.98;25.08;;;26.00;86.30;;;;;;4868090;29;20901;-91
2021/06/25 11:20:27;;;;;;;27.30;24.48;;;26.20;86.40;;;;;;4874414;29;20635;-89
2021/06/25 11:23:03;;;;;;;26.67;23.98;;;26.50;86.00;;;;;;4870963;29;20203;-89
2021/06/25 11:25:52;;;;;;;26.70;23.95;;;26.70;85.70;;;;;;4860752;29;20283;-85
2021/06/25 11:28:26;;;;;;;25.48;22.88;;;26.90;86.00;;;;;;4859679;29;20401;-89
2021/06/25 11:31:18;;;;;;;24.27;21.92;;;27.00;85.10;;;;;;4872795;29;20206;-90
2021/06/25 11:33:56;;;;;;;24.35;21.85;;;26.80;85.10;;;;;;4873555;29;20207;-87
2021/06/25 11:36:41;;;;;;;24.60;22.20;;;26.50;85.20;;;;;;4860558;29;20210;-86
2021/06/25 11:39:20;;;;;;;23.45;20.75;;;26.50;85.20;;;;;;4876664;29;20675;-85
2021/06/25 11:41:55;;;;;;;23.58;21.23;;;26.40;85.60;;;;;;4882807;29;20974;-85
2021/06/25 11:50:37;;;;;;;20.23;18.20;;;26.40;85.50;;;;;;4871698;29;20215;-88
2021/06/25 11:53:10;;;;;;;19.80;17.85;;;26.30;85.50;;;;;;4888440;29;20270;-88
2021/06/25 11:55:46;;;;;;;20.40;18.23;;;26.00;85.30;;;;;;4884068;29;20203;-88
2021/06/25 12:02:05;;;;;;;19.67;17.77;;;25.80;85.50;;;;;;4883813;29;20238;-88
2021/06/25 12:11:05;;;;;;;19.77;17.48;;;25.30;86.00;;;;;;4883512;29;20665;-85
2021/06/25 12:13:36;;;;;;;19.75;17.65;;;25.30;86.70;;;;;;4875800;29;20211;-87
2021/06/25 12:16:12;;;;;;;20.63;18.42;;;25.20;85.70;;;;;;4889291;29;20198;-87
2021/06/25 12:21:55;;;;;;;19.48;17.48;;;24.90;86.90;;;;;;4895572;29;20191;-85
2021/06/25 12:33:43;;;;;;;20.40;18.17;;;24.60;87.50;;;;;;4880073;29;20235;-87
2021/06/25 12:36:42;;;;;;;20.33;17.95;;;24.60;87.30;;;;;;4880955;29;20219;-86
2021/06/25 12:42:20;;;;;;;19.90;17.85;;;24.90;87.30;;;;;;4883252;29;20254;-87
2021/06/25 12:44:52;;;;;;;21.10;18.75;;;24.80;86.50;;;;;;4881775;29;20286;-87
2021/06/25 12:47:21;;;;;;;22.02;19.70;;;24.90;86.70;;;;;;4881889;29;20228;-88
2021/06/25 12:49:52;;;;;;;21.50;19.30;;;25.00;86.60;;;;;;4894076;29;20207;-87
2021/06/25 12:52:22;;;;;;;23.35;20.92;;;25.00;86.60;;;;;;4886648;29;20332;-88
2021/06/25 12:54:53;;;;;;;25.60;22.42;;;24.90;86.70;;;;;;4883988;29;20216;-88
2021/06/25 12:57:24;;;;;;;26.02;23.17;;;24.80;87.00;;;;;;4887516;29;20587;-88
2021/06/25 12:59:57;;;;;;;28.65;24.58;;;24.70;86.90;;;;;;4881767;29;20219;-91
2021/06/25 13:02:31;;;;;;;28.30;24.67;;;24.70;86.70;;;;;;4880115;29;20647;-87
2021/06/25 13:05:04;;;;;;;29.60;26.50;;;24.40;86.80;;;;;;4885131;29;20477;-89
2021/06/25 13:07:35;;;;;;;28.83;25.67;;;24.10;87.30;;;;;;4877292;29;20849;-89
2021/06/25 13:10:13;;;;;;;30.23;26.35;;;24.00;88.10;;;;;;4880839;29;20316;-88
2021/06/25 13:12:44;;;;;;;33.15;27.05;;;23.90;88.20;;;;;;4879169;29;20207;-88
2021/06/25 13:15:18;;;;;;;31.10;27.05;;;23.80;88.10;;;;;;4879441;29;20242;-90
2021/06/25 13:17:49;;;;;;;29.52;26.35;;;23.70;88.10;;;;;;4875118;29;20211;-86
2021/06/25 13:20:57;;;;;;;33.40;29.77;;;23.50;88.30;;;;;;4878997;29;20227;-88
2021/06/25 13:23:35;;;;;;;32.35;28.42;;;23.40;89.50;;;;;;4875469;29;20239;-84
2021/06/25 13:26:09;;;;;;;34.63;29.48;;;23.10;90.30;;;;;;4878706;29;20693;-88
2021/06/25 13:28:39;;;;;;;35.92;29.13;;;22.80;90.70;;;;;;4879038;29;20215;-85
2021/06/25 13:31:09;;;;;;;34.22;29.48;;;22.60;90.90;;;;;;4895976;29;20210;-88
2021/06/25 13:33:42;;;;;;;36.10;29.08;;;22.40;90.90;;;;;;4898541;29;21403;-87